Asian Moon — C4EQ2 — position and weather

sailwx.info

Track history (hours):
 
Tides and Currents Weather Stations Pressure Air Temp Water Temp Dewpoint Dewpoint Depression Visibility Wind Speed Wind Dir Waves Ship Positions

Asian Moon

Last reported at 2018-Jan-22 10:12 UTC. Time now 2018-Jan-23 13:58 UTC.
Position N 16°13' W 062°47'.

Length 148 m; draft 9 m.

Type: Cargo ship. MMSI: 209570000.

Date/timePositionNaut miles runAvg speedWind from/ knotsBaromVisibWave heightAir tempDewpointWater temp
2018-Jan-22 10:12N 16°13' W 062°47'314.4
2018-Jan-22 09:58N 16°15' W 062°44'714.4
2018-Jan-22 09:30N 16°18' W 062°38'714.2
2018-Jan-22 09:00N 16°21' W 062°31'714.3
2018-Jan-22 08:31N 16°23' W 062°24'714.6
2018-Jan-22 08:01N 16°27' W 062°18'714.8
2018-Jan-22 07:31N 16°30' W 062°11'714.9
2018-Jan-22 07:01N 16°33' W 062°03'714.8
2018-Jan-22 06:31N 16°36' W 061°56'714.8
2018-Jan-22 06:01N 16°39' W 061°49'714.7
2018-Jan-22 05:30N 16°42' W 061°43'714.6
2018-Jan-22 05:01N 16°47' W 061°37'714.6
2018-Jan-22 04:31N 16°53' W 061°32'714.6
2018-Jan-22 04:00N 16°56' W 061°25'714.6
2018-Jan-22 03:31N 17°01' W 061°20'714.8
2018-Jan-22 03:00N 17°06' W 061°14'714.5
2018-Jan-22 02:31N 17°11' W 061°09'714.3
2018-Jan-22 02:01N 17°16' W 061°03'  
Track history (hours):
 
Tides and Currents Weather Stations Pressure Air Temp Water Temp Dewpoint Dewpoint Depression Visibility Wind Speed Wind Dir Waves Ship Positions

Asian Moon

Last reported at 2018-Jan-22 10:12 UTC. Time now 2018-Jan-23 13:58 UTC.
Position N 16°13' W 062°47'.

Length 148 m; draft 9 m.

Type: Cargo ship. MMSI: 209570000.

Date/timePositionNaut miles runAvg speedWind from/ knotsBaromVisibWave heightAir tempDewpointWater temp
2018-Jan-22 10:12N 16°13' W 062°47'314.4
2018-Jan-22 09:58N 16°15' W 062°44'714.4
2018-Jan-22 09:30N 16°18' W 062°38'714.2
2018-Jan-22 09:00N 16°21' W 062°31'714.3
2018-Jan-22 08:31N 16°23' W 062°24'714.6
2018-Jan-22 08:01N 16°27' W 062°18'714.8
2018-Jan-22 07:31N 16°30' W 062°11'714.9
2018-Jan-22 07:01N 16°33' W 062°03'714.8
2018-Jan-22 06:31N 16°36' W 061°56'714.8
2018-Jan-22 06:01N 16°39' W 061°49'714.7
2018-Jan-22 05:30N 16°42' W 061°43'714.6
2018-Jan-22 05:01N 16°47' W 061°37'714.6
2018-Jan-22 04:31N 16°53' W 061°32'714.6
2018-Jan-22 04:00N 16°56' W 061°25'714.6
2018-Jan-22 03:31N 17°01' W 061°20'714.8
2018-Jan-22 03:00N 17°06' W 061°14'714.5
2018-Jan-22 02:31N 17°11' W 061°09'714.3
2018-Jan-22 02:01N 17°16' W 061°03'  

Dump ship's entire track history